Time;durP1;ratioP1;P1;durP2;ratioP2;P2;SDS_P1;SDS_P2;PMS_P1;PMS_P2;Temp;Humidity;BMP_temperature;BMP_pressure;BME280_temperature;BME280_humidity;BME280_pressure;Samples;Min_cycle;Max_cycle;Signal;HPM_P1;HPM_P2
2021/11/04 00:01:16;;;;;;;3.83;3.22;;;24.10;39.20;;;;;;1816167;79;21126;-11
2021/11/04 00:03:44;;;;;;;2.42;2.22;;;24.10;38.90;;;;;;1816173;79;21540;-10
2021/11/04 00:06:12;;;;;;;2.77;2.58;;;24.20;38.80;;;;;;1816163;79;21602;-10
2021/11/04 00:08:39;;;;;;;1.70;1.42;;;24.20;38.60;;;;;;1816263;79;21527;-10
2021/11/04 00:11:06;;;;;;;1.77;1.67;;;24.20;39.00;;;;;;1816173;79;21056;-10
2021/11/04 00:13:34;;;;;;;1.80;1.70;;;24.20;39.00;;;;;;1816164;79;21079;-11
2021/11/04 00:16:01;;;;;;;2.80;2.40;;;24.20;38.80;;;;;;1816246;79;21505;-10
2021/11/04 00:18:29;;;;;;;1.87;1.70;;;24.30;38.70;;;;;;1816153;79;21642;-10
2021/11/04 00:20:56;;;;;;;3.25;2.95;;;24.30;38.90;;;;;;1816148;79;21544;-10
2021/11/04 00:23:24;;;;;;;2.65;2.45;;;24.30;38.50;;;;;;1816144;79;21028;-10
2021/11/04 00:25:51;;;;;;;2.40;2.20;;;24.30;38.80;;;;;;1816206;78;21118;-10
2021/11/04 00:28:19;;;;;;;3.05;2.75;;;24.30;38.80;;;;;;1816189;79;21550;-10
2021/11/04 00:30:47;;;;;;;3.15;2.90;;;24.30;38.60;;;;;;1816207;79;21562;-10
2021/11/04 00:33:15;;;;;;;2.40;2.20;;;24.30;39.00;;;;;;1811697;79;21090;-10
2021/11/04 00:35:42;;;;;;;1.75;1.52;;;24.30;38.50;;;;;;1785511;80;21082;-10
2021/11/04 00:38:10;;;;;;;1.72;1.62;;;24.30;38.90;;;;;;1785535;80;21074;-10
2021/11/04 00:40:37;;;;;;;1.47;1.37;;;24.30;38.90;;;;;;1785553;80;21055;-10
2021/11/04 00:43:05;;;;;;;2.00;1.80;;;24.30;38.80;;;;;;1785525;80;21141;-10
2021/11/04 00:45:33;;;;;;;1.72;1.55;;;24.30;38.50;;;;;;1785522;80;21126;-10
2021/11/04 00:48:00;;;;;;;2.10;1.90;;;24.40;38.40;;;;;;1785493;80;21044;-10
2021/11/04 00:50:28;;;;;;;1.40;1.30;;;24.40;38.30;;;;;;1785532;80;21075;-10
2021/11/04 00:52:55;;;;;;;1.17;0.98;;;24.40;38.70;;;;;;1785600;80;21523;-10
2021/11/04 00:55:22;;;;;;;1.75;1.65;;;24.40;38.90;;;;;;1785596;80;21089;-10
2021/11/04 00:57:50;;;;;;;2.40;2.12;;;24.40;38.50;;;;;;1785572;80;21536;-10
2021/11/04 01:00:19;;;;;;;2.47;2.27;;;24.40;38.30;;;;;;1785551;80;21150;-10
2021/11/04 01:02:47;;;;;;;1.45;1.32;;;24.40;38.30;;;;;;1785527;80;21179;-10
2021/11/04 01:05:14;;;;;;;1.17;1.07;;;24.50;38.90;;;;;;1785512;80;21137;-10
2021/11/04 01:07:42;;;;;;;1.55;1.45;;;24.40;38.80;;;;;;1785525;80;21107;-10
2021/11/04 01:10:09;;;;;;;1.80;1.70;;;24.40;38.70;;;;;;1785562;80;21480;-10
2021/11/04 01:12:37;;;;;;;2.62;2.42;;;24.40;38.40;;;;;;1785525;80;21520;-10
2021/11/04 01:15:05;;;;;;;2.77;2.37;;;24.50;38.30;;;;;;1785496;80;21524;-10
2021/11/04 01:17:33;;;;;;;1.50;1.40;;;24.40;38.10;;;;;;1785525;79;21047;-10
2021/11/04 01:20:01;;;;;;;2.00;1.80;;;24.50;38.60;;;;;;1785614;80;21541;-10
2021/11/04 01:22:28;;;;;;;2.25;2.05;;;24.50;38.50;;;;;;1785528;80;21149;-10
2021/11/04 01:24:56;;;;;;;3.08;2.20;;;24.50;38.20;;;;;;1785501;79;21560;-10
2021/11/04 01:27:24;;;;;;;2.37;2.02;;;24.50;38.10;;;;;;1785537;80;21584;-10
2021/11/04 01:29:51;;;;;;;1.80;1.70;;;24.50;38.10;;;;;;1785533;79;21629;-10
2021/11/04 01:32:19;;;;;;;1.60;1.00;;;24.50;38.30;;;;;;1785602;80;21548;-10
2021/11/04 01:34:48;;;;;;;1.87;1.67;;;24.50;38.60;;;;;;1785627;79;21552;-10
2021/11/04 01:37:15;;;;;;;1.92;1.72;;;24.50;38.50;;;;;;1785581;80;21516;-10
2021/11/04 01:39:43;;;;;;;2.70;1.70;;;24.50;38.30;;;;;;1785510;80;21078;-10
2021/11/04 01:42:10;;;;;;;1.10;1.00;;;24.50;38.40;;;;;;1785579;79;21124;-10
2021/11/04 01:44:37;;;;;;;1.45;1.35;;;24.50;38.80;;;;;;1785564;79;21079;-10
2021/11/04 01:47:08;;;;;;;2.05;1.60;;;24.50;38.80;;;;;;1785540;80;21515;-10
2021/11/04 01:49:38;;;;;;;2.27;2.08;;;24.50;38.70;;;;;;1785770;80;21488;-10
2021/11/04 01:52:06;;;;;;;2.40;2.20;;;24.50;38.40;;;;;;1785585;80;21469;-10
2021/11/04 01:54:33;;;;;;;2.50;2.27;;;24.50;38.20;;;;;;1785529;80;21111;-10
2021/11/04 01:57:01;;;;;;;1.80;1.30;;;24.60;38.10;;;;;;1785479;80;21142;-10
2021/11/04 01:59:28;;;;;;;1.55;1.30;;;24.50;38.40;;;;;;1785511;80;21090;-10
2021/11/04 02:02:17;;;;;;;2.22;2.02;;;24.60;38.60;;;;;;1785508;80;21108;-10
2021/11/04 02:04:57;;;;;;;1.62;1.52;;;24.60;38.20;;;;;;1785550;80;21606;-10
2021/11/04 02:07:57;;;;;;;1.90;1.70;;;24.50;38.00;;;;;;1785511;80;21106;-10
2021/11/04 02:10:44;;;;;;;1.40;1.30;;;24.50;38.10;;;;;;1785526;80;21123;-10
2021/11/04 02:13:30;;;;;;;1.25;1.12;;;24.50;38.60;;;;;;1785499;80;21099;-10
2021/11/04 02:16:00;;;;;;;1.67;1.57;;;24.40;38.60;;;;;;1785474;80;21133;-10
2021/11/04 02:18:29;;;;;;;1.60;1.50;;;24.40;38.30;;;;;;1785514;80;21500;-10
2021/11/04 02:21:22;;;;;;;2.47;2.27;;;24.40;38.40;;;;;;1785487;80;21166;-10
2021/11/04 02:23:53;;;;;;;1.20;1.10;;;24.40;38.20;;;;;;1785485;79;21305;-10
2021/11/04 02:26:21;;;;;;;1.50;1.35;;;24.40;38.60;;;;;;1785601;80;21521;-10
2021/11/04 02:28:49;;;;;;;1.60;1.50;;;24.40;38.60;;;;;;1785558;80;21528;-10
2021/11/04 02:31:16;;;;;;;1.47;1.27;;;24.40;38.30;;;;;;1785561;79;21524;-10
2021/11/04 02:33:44;;;;;;;1.40;1.30;;;24.50;38.30;;;;;;1785473;80;21052;-10
2021/11/04 02:36:11;;;;;;;1.12;1.00;;;24.50;38.70;;;;;;1787617;79;21080;-10
2021/11/04 02:38:39;;;;;;;1.92;1.40;;;24.50;38.60;;;;;;1787714;80;21046;-10
2021/11/04 02:41:07;;;;;;;1.70;1.60;;;24.50;38.60;;;;;;1787652;80;21066;-10
2021/11/04 02:43:35;;;;;;;2.22;1.60;;;24.60;38.30;;;;;;1787680;80;21496;-10
2021/11/04 02:46:04;;;;;;;2.00;1.90;;;24.60;38.20;;;;;;1787720;80;21657;-10
2021/11/04 02:48:34;;;;;;;1.50;1.40;;;24.60;38.10;;;;;;1787692;80;21050;-10
2021/11/04 02:51:01;;;;;;;1.22;1.12;;;24.60;38.60;;;;;;1787684;80;21098;-10
2021/11/04 02:53:30;;;;;;;1.77;1.67;;;24.60;38.60;;;;;;1787646;80;21067;-10
2021/11/04 02:55:58;;;;;;;2.50;2.12;;;24.60;38.40;;;;;;1787757;80;21591;-10
2021/11/04 02:58:26;;;;;;;2.10;1.50;;;24.60;38.10;;;;;;1787664;80;21059;-10
2021/11/04 03:00:56;;;;;;;1.98;1.45;;;24.70;38.10;;;;;;1787742;80;21125;-10
2021/11/04 03:03:24;;;;;;;1.27;1.17;;;24.70;38.40;;;;;;1787737;80;21081;-10
2021/11/04 03:05:51;;;;;;;1.10;1.00;;;24.70;38.40;;;;;;1787755;80;21078;-10
2021/11/04 03:08:18;;;;;;;1.67;1.47;;;24.70;38.40;;;;;;1787803;80;21133;-10
2021/11/04 03:10:46;;;;;;;1.42;1.25;;;24.70;38.00;;;;;;1787774;80;21118;-10
2021/11/04 03:13:14;;;;;;;1.57;1.47;;;24.70;38.00;;;;;;1787844;80;21649;-10
2021/11/04 03:15:44;;;;;;;1.00;0.88;;;24.70;37.90;;;;;;1787811;80;21522;-10
2021/11/04 03:18:12;;;;;;;1.57;1.20;;;24.70;38.30;;;;;;1787784;80;21058;-10
2021/11/04 03:20:39;;;;;;;1.40;1.30;;;24.70;38.20;;;;;;1787720;80;21063;-10
2021/11/04 03:23:07;;;;;;;1.90;1.70;;;24.70;37.90;;;;;;1787782;80;21050;-10
2021/11/04 03:25:34;;;;;;;1.80;1.37;;;24.70;37.70;;;;;;1787822;79;21110;-10
2021/11/04 03:28:03;;;;;;;0.90;0.88;;;24.70;37.80;;;;;;1787764;80;21465;-10
2021/11/04 03:30:34;;;;;;;2.05;1.30;;;24.70;38.20;;;;;;1787787;80;21063;-10
2021/11/04 03:33:01;;;;;;;1.75;1.65;;;24.70;38.10;;;;;;1787915;80;21150;-10
2021/11/04 03:35:29;;;;;;;1.50;1.40;;;24.70;37.90;;;;;;1786854;79;21571;-10
2021/11/04 03:37:58;;;;;;;1.47;1.37;;;24.70;37.70;;;;;;1785628;80;21516;-10
2021/11/04 03:40:26;;;;;;;1.07;0.98;;;24.70;37.70;;;;;;1785532;80;21036;-10
2021/11/04 03:42:54;;;;;;;0.70;0.70;;;24.70;37.90;;;;;;1785605;79;21074;-10
2021/11/04 03:45:21;;;;;;;0.82;0.82;;;24.70;38.20;;;;;;1785576;80;21535;-10
2021/11/04 03:47:49;;;;;;;1.47;0.80;;;24.70;37.90;;;;;;1785550;79;21063;-10
2021/11/04 03:50:18;;;;;;;1.20;1.10;;;24.70;37.70;;;;;;1785663;80;21516;-10
2021/11/04 03:52:45;;;;;;;0.80;0.78;;;24.70;37.50;;;;;;1785628;80;21137;-10
2021/11/04 03:55:13;;;;;;;0.90;0.90;;;24.70;37.90;;;;;;1785570;79;21078;-10
2021/11/04 03:57:41;;;;;;;0.60;0.60;;;24.70;38.00;;;;;;1785588;80;21551;-10
2021/11/04 04:00:12;;;;;;;1.30;1.20;;;24.70;37.90;;;;;;1785567;80;21485;-10
2021/11/04 04:02:40;;;;;;;1.07;0.90;;;24.70;37.60;;;;;;1785630;80;21464;-10
2021/11/04 04:05:08;;;;;;;0.80;0.80;;;24.70;37.50;;;;;;1785542;80;21040;-10
2021/11/04 04:07:36;;;;;;;0.70;0.70;;;24.70;37.50;;;;;;1785591;80;21609;-10
2021/11/04 04:10:05;;;;;;;1.00;0.85;;;24.70;37.70;;;;;;1785566;80;21090;-10
2021/11/04 04:12:32;;;;;;;1.57;0.93;;;24.70;37.90;;;;;;1785575;80;21548;-10
2021/11/04 04:15:00;;;;;;;1.00;0.90;;;24.70;37.70;;;;;;1785524;80;21497;-10
2021/11/04 04:17:27;;;;;;;0.88;0.80;;;24.70;37.80;;;;;;1785597;80;21513;-10
2021/11/04 04:19:55;;;;;;;0.80;0.70;;;24.70;37.70;;;;;;1785604;80;21543;-10
2021/11/04 04:22:22;;;;;;;0.70;0.70;;;24.70;38.20;;;;;;1785559;80;21497;-10
2021/11/04 04:24:50;;;;;;;1.12;1.02;;;24.70;38.20;;;;;;1785474;79;21601;-10
2021/11/04 04:27:17;;;;;;;1.20;1.10;;;24.70;38.10;;;;;;1785620;79;21083;-10
2021/11/04 04:29:45;;;;;;;1.20;1.10;;;24.70;37.90;;;;;;1785485;80;21082;-10
2021/11/04 04:32:13;;;;;;;1.42;0.70;;;24.70;37.80;;;;;;1785514;80;21590;-10
2021/11/04 04:34:42;;;;;;;1.12;0.70;;;24.70;38.30;;;;;;1785581;80;21145;-11
2021/11/04 04:37:10;;;;;;;0.70;0.70;;;24.70;38.80;;;;;;1787809;79;21094;-10
2021/11/04 04:39:41;;;;;;;1.50;1.40;;;24.70;38.20;;;;;;1787723;80;21055;-10
2021/11/04 04:42:10;;;;;;;1.67;1.00;;;24.80;38.10;;;;;;1787727;80;21216;-10
2021/11/04 04:44:38;;;;;;;0.60;0.60;;;24.80;37.90;;;;;;1787771;80;21145;-10
2021/11/04 04:47:05;;;;;;;1.25;0.93;;;24.80;38.30;;;;;;1787794;80;21598;-10
2021/11/04 04:49:33;;;;;;;2.00;1.05;;;24.80;38.40;;;;;;1787716;80;21079;-10
2021/11/04 04:52:01;;;;;;;1.07;0.98;;;24.70;38.10;;;;;;1757329;80;21590;-10
2021/11/04 04:54:29;;;;;;;1.05;1.02;;;24.80;37.90;;;;;;1787733;80;21133;-10
2021/11/04 04:56:57;;;;;;;1.35;0.80;;;24.80;37.80;;;;;;1787802;80;21044;-10
2021/11/04 04:59:24;;;;;;;0.72;0.72;;;24.80;37.90;;;;;;1787805;80;21524;-10
2021/11/04 05:01:52;;;;;;;0.85;0.85;;;24.80;38.20;;;;;;1787809;80;21087;-10
2021/11/04 05:04:20;;;;;;;0.90;0.85;;;24.80;38.10;;;;;;1787788;80;21515;-10
2021/11/04 05:06:47;;;;;;;1.10;1.00;;;24.80;37.80;;;;;;1787710;80;21071;-10
2021/11/04 05:09:15;;;;;;;1.50;1.15;;;24.80;37.70;;;;;;1787692;80;21536;-11
2021/11/04 05:11:42;;;;;;;0.75;0.75;;;24.80;37.70;;;;;;1787819;80;21543;-10
2021/11/04 05:14:10;;;;;;;0.68;0.60;;;24.80;38.00;;;;;;1787746;80;21055;-10
2021/11/04 05:16:37;;;;;;;1.47;1.12;;;24.80;38.00;;;;;;1787742;80;21044;-10
2021/11/04 05:19:05;;;;;;;1.12;1.02;;;24.80;37.70;;;;;;1787748;80;21058;-10
2021/11/04 05:21:33;;;;;;;0.85;0.85;;;24.80;37.50;;;;;;1787761;80;21559;-10
2021/11/04 05:24:01;;;;;;;0.80;0.70;;;24.80;37.60;;;;;;1787651;79;21091;-10
2021/11/04 05:26:29;;;;;;;0.70;0.70;;;24.70;37.80;;;;;;1787808;80;21148;-10
2021/11/04 05:28:56;;;;;;;1.00;0.93;;;24.70;37.90;;;;;;1787716;80;21082;-10
2021/11/04 05:31:23;;;;;;;0.62;0.62;;;24.80;37.60;;;;;;1787722;80;21625;-10
2021/11/04 05:33:53;;;;;;;1.02;0.80;;;24.80;37.50;;;;;;1787733;80;21132;-10
2021/11/04 05:36:21;;;;;;;0.80;0.70;;;24.70;37.50;;;;;;1787544;79;21099;-10
2021/11/04 05:38:49;;;;;;;1.98;0.93;;;24.70;38.00;;;;;;1787793;80;21493;-10
2021/11/04 05:41:17;;;;;;;1.30;0.90;;;24.70;37.90;;;;;;1787818;80;21520;-10
2021/11/04 05:43:44;;;;;;;1.12;0.90;;;24.70;37.50;;;;;;1787733;80;21180;-10
2021/11/04 05:46:12;;;;;;;0.80;0.80;;;24.70;37.40;;;;;;1787701;80;21075;-10
2021/11/04 05:48:39;;;;;;;0.70;0.70;;;24.80;37.40;;;;;;1787738;80;21067;-10
2021/11/04 05:51:07;;;;;;;0.53;0.53;;;24.80;37.60;;;;;;1787636;80;21524;-10
2021/11/04 05:53:34;;;;;;;0.50;0.50;;;24.70;37.80;;;;;;1787651;80;21062;-10
2021/11/04 05:56:02;;;;;;;1.15;0.93;;;24.70;37.90;;;;;;1787690;80;21109;-10
2021/11/04 05:58:30;;;;;;;0.68;0.68;;;24.80;37.60;;;;;;1787793;80;21129;-10
2021/11/04 06:00:57;;;;;;;0.90;0.90;;;24.80;37.50;;;;;;1787703;80;21539;-10
2021/11/04 06:03:25;;;;;;;0.55;0.55;;;24.70;37.50;;;;;;1787686;80;21559;-12
2021/11/04 06:05:52;;;;;;;0.65;0.65;;;24.70;37.80;;;;;;1787605;80;21055;-10
2021/11/04 06:08:20;;;;;;;0.72;0.60;;;24.80;38.10;;;;;;1787648;80;21075;-11
2021/11/04 06:10:47;;;;;;;0.57;0.57;;;24.70;37.80;;;;;;1787714;80;21480;-10
2021/11/04 06:13:15;;;;;;;0.70;0.70;;;24.70;37.50;;;;;;1787824;80;21575;-10
2021/11/04 06:15:42;;;;;;;0.50;0.50;;;24.70;37.50;;;;;;1787718;80;21083;-10
2021/11/04 06:18:10;;;;;;;0.75;0.65;;;24.70;38.00;;;;;;1787677;80;21589;-11
2021/11/04 06:20:37;;;;;;;0.40;0.40;;;24.70;37.90;;;;;;1787666;80;21711;-10
2021/11/04 06:23:05;;;;;;;0.70;0.70;;;24.70;37.80;;;;;;1787698;80;21184;-10
2021/11/04 06:25:32;;;;;;;0.70;0.70;;;24.70;37.60;;;;;;1787647;79;21108;-10
2021/11/04 06:27:59;;;;;;;0.40;0.40;;;24.70;37.70;;;;;;1787684;80;21078;-10
2021/11/04 06:30:27;;;;;;;0.70;0.60;;;24.70;37.70;;;;;;1787676;80;21594;-10
2021/11/04 06:32:55;;;;;;;1.00;0.60;;;24.70;38.00;;;;;;1787677;80;21555;-11
2021/11/04 06:35:23;;;;;;;0.75;0.60;;;24.70;38.00;;;;;;1787832;80;21548;-10
2021/11/04 06:37:50;;;;;;;0.93;0.60;;;24.70;37.70;;;;;;1786111;79;21555;-10
2021/11/04 06:40:24;;;;;;;0.65;0.62;;;24.70;37.60;;;;;;1785574;80;21071;-10
2021/11/04 06:42:47;;;;;;;0.40;0.40;;;24.70;37.60;;;;;;1784890;80;21090;-11
2021/11/04 06:45:14;;;;;;;0.50;0.50;;;24.70;38.10;;;;;;1785578;80;21579;-10
2021/11/04 06:47:53;;;;;;;1.00;0.50;;;24.70;38.00;;;;;;1785699;80;21507;-10
2021/11/04 06:50:23;;;;;;;0.50;0.50;;;24.70;37.90;;;;;;1785672;80;21070;-10
2021/11/04 06:53:09;;;;;;;1.02;0.60;;;24.70;37.70;;;;;;1785641;80;21032;-10
2021/11/04 06:55:42;;;;;;;0.90;0.47;;;24.70;37.60;;;;;;1785524;80;21525;-11
2021/11/04 06:58:15;;;;;;;0.95;0.70;;;24.70;38.10;;;;;;1785506;80;21043;-11
2021/11/04 07:00:47;;;;;;;1.50;0.60;;;24.70;38.30;;;;;;1785641;79;21043;-11
2021/11/04 07:03:24;;;;;;;0.40;0.40;;;24.70;38.10;;;;;;1785527;80;21088;-11
2021/11/04 07:06:07;;;;;;;0.60;0.60;;;24.70;38.00;;;;;;1785518;80;21532;-11
2021/11/04 07:08:28;;;;;;;0.62;0.55;;;24.70;38.00;;;;;;1783582;80;21063;-11
2021/11/04 07:11:00;;;;;;;0.78;0.65;;;24.70;38.40;;;;;;1785512;80;21155;-11
2021/11/04 07:13:29;;;;;;;0.70;0.70;;;24.70;38.30;;;;;;1785508;80;21056;-11
2021/11/04 07:15:57;;;;;;;0.72;0.72;;;24.70;38.00;;;;;;1785518;80;21082;-11
2021/11/04 07:18:25;;;;;;;0.80;0.80;;;24.70;37.90;;;;;;1785528;80;21192;-11
2021/11/04 07:21:04;;;;;;;0.55;0.55;;;24.70;37.80;;;;;;1785503;80;21531;-11
2021/11/04 07:23:35;;;;;;;2.37;0.70;;;24.70;38.30;;;;;;1785628;79;21488;-11
2021/11/04 07:26:04;;;;;;;0.80;0.80;;;24.70;38.20;;;;;;1784070;80;21063;-11
2021/11/04 07:28:31;;;;;;;1.15;1.05;;;24.70;38.10;;;;;;1785491;80;21129;-11
2021/11/04 07:30:59;;;;;;;0.90;0.90;;;24.70;38.00;;;;;;1785463;79;21047;-11
2021/11/04 07:33:27;;;;;;;0.57;0.57;;;24.70;37.90;;;;;;1785483;80;21574;-11
2021/11/04 07:35:54;;;;;;;0.90;0.72;;;24.70;38.30;;;;;;1785489;80;21074;-11
2021/11/04 07:38:22;;;;;;;1.32;0.90;;;24.70;38.50;;;;;;1813512;78;21083;-11
2021/11/04 07:40:49;;;;;;;1.10;1.10;;;24.70;38.40;;;;;;1824751;79;21146;-11
2021/11/04 07:43:18;;;;;;;1.32;1.22;;;24.70;38.10;;;;;;1824747;79;21536;-11
2021/11/04 07:45:46;;;;;;;1.47;1.37;;;24.80;37.90;;;;;;1824759;79;21524;-11
2021/11/04 07:48:13;;;;;;;1.65;1.40;;;24.70;37.70;;;;;;1824688;79;21087;-11
2021/11/04 07:50:41;;;;;;;1.30;1.20;;;24.80;38.30;;;;;;1824746;79;21137;-11
2021/11/04 07:53:08;;;;;;;2.15;1.90;;;24.80;38.30;;;;;;1824838;79;21055;-11
2021/11/04 07:55:35;;;;;;;1.80;1.70;;;24.80;38.00;;;;;;1824755;79;21059;-11
2021/11/04 07:58:03;;;;;;;1.30;1.20;;;24.80;37.80;;;;;;1824748;79;21047;-11
2021/11/04 08:00:30;;;;;;;1.67;1.30;;;24.80;37.80;;;;;;1824743;79;21154;-11
2021/11/04 08:02:58;;;;;;;1.52;1.37;;;24.90;38.20;;;;;;1824689;79;21497;-11
2021/11/04 08:05:26;;;;;;;1.35;1.00;;;24.80;38.20;;;;;;1824754;79;21622;-11
2021/11/04 08:07:53;;;;;;;1.10;1.00;;;24.80;38.10;;;;;;1824756;79;21584;-11
2021/11/04 08:10:21;;;;;;;0.80;0.80;;;24.80;37.90;;;;;;1824752;79;21133;-11
2021/11/04 08:12:48;;;;;;;1.05;0.93;;;24.80;37.80;;;;;;1824695;79;21095;-11
2021/11/04 08:15:16;;;;;;;1.45;1.10;;;24.80;38.20;;;;;;1824714;79;21555;-11
2021/11/04 08:17:45;;;;;;;0.93;0.93;;;24.80;38.30;;;;;;1824778;79;21083;-11
2021/11/04 08:20:12;;;;;;;1.32;1.22;;;24.80;38.20;;;;;;1824673;79;21082;-11
2021/11/04 08:22:40;;;;;;;2.25;1.50;;;24.80;37.90;;;;;;1824663;79;21058;-11
2021/11/04 08:25:07;;;;;;;1.27;1.17;;;24.80;37.90;;;;;;1824616;77;21533;-11
2021/11/04 08:27:35;;;;;;;1.87;1.45;;;24.80;38.40;;;;;;1824730;79;21126;-11
2021/11/04 08:30:03;;;;;;;1.22;1.12;;;24.80;38.20;;;;;;1824843;79;21071;-11
2021/11/04 08:32:32;;;;;;;1.70;1.60;;;24.80;38.20;;;;;;1824868;79;21536;-11
2021/11/04 08:35:00;;;;;;;1.70;1.60;;;24.80;37.80;;;;;;1824756;79;21575;-11
2021/11/04 08:37:27;;;;;;;1.52;1.42;;;24.80;37.70;;;;;;1815114;79;21129;-11
2021/11/04 08:39:56;;;;;;;1.42;1.32;;;24.90;37.70;;;;;;1785415;80;21102;-11
2021/11/04 08:42:23;;;;;;;1.35;1.25;;;24.90;38.10;;;;;;1785417;80;21130;-11
2021/11/04 08:44:50;;;;;;;1.80;1.70;;;24.90;38.20;;;;;;1785390;80;21602;-10
2021/11/04 08:47:18;;;;;;;2.47;2.20;;;24.90;37.80;;;;;;1785468;80;21586;-10
2021/11/04 08:49:46;;;;;;;2.20;2.00;;;24.80;37.60;;;;;;1785467;80;21629;-10
2021/11/04 08:52:13;;;;;;;1.50;1.37;;;24.90;37.70;;;;;;1785433;80;21079;-10
2021/11/04 08:54:41;;;;;;;1.65;1.55;;;24.80;38.10;;;;;;1785461;80;21138;-10
2021/11/04 08:57:12;;;;;;;2.12;1.70;;;24.90;38.20;;;;;;1785367;80;21117;-11
2021/11/04 08:59:41;;;;;;;2.08;1.87;;;24.80;38.10;;;;;;1785426;80;21181;-12
2021/11/04 09:02:14;;;;;;;2.22;1.92;;;24.90;37.90;;;;;;1785370;80;21095;-9
2021/11/04 09:04:45;;;;;;;2.17;1.98;;;24.90;37.80;;;;;;1785586;79;21078;-10
2021/11/04 09:07:18;;;;;;;1.60;1.45;;;24.90;38.00;;;;;;1785555;80;21531;-10
2021/11/04 09:09:47;;;;;;;2.00;1.80;;;24.80;38.20;;;;;;1785389;80;21110;-10
2021/11/04 09:12:14;;;;;;;2.50;2.30;;;24.80;38.20;;;;;;1785603;80;21532;-10
2021/11/04 09:14:45;;;;;;;3.52;2.25;;;24.80;37.90;;;;;;1785414;80;21071;-12
2021/11/04 09:17:13;;;;;;;2.60;2.40;;;24.80;38.00;;;;;;1785422;80;21542;-10
2021/11/04 09:19:41;;;;;;;2.77;1.60;;;24.80;38.30;;;;;;1785353;80;21515;-10
2021/11/04 09:22:09;;;;;;;1.98;1.87;;;24.80;38.30;;;;;;1785399;80;21109;-10
2021/11/04 09:24:36;;;;;;;3.55;2.60;;;24.80;38.20;;;;;;1785446;79;21556;-10
2021/11/04 09:27:04;;;;;;;3.02;2.70;;;24.80;38.00;;;;;;1785515;80;21634;-10
2021/11/04 09:29:32;;;;;;;2.30;2.10;;;24.80;37.80;;;;;;1785503;79;21062;-10
2021/11/04 09:32:00;;;;;;;2.20;2.00;;;24.90;37.90;;;;;;1785426;80;21078;-10
2021/11/04 09:34:28;;;;;;;2.40;2.20;;;24.90;38.30;;;;;;1785366;79;21528;-10
2021/11/04 09:36:56;;;;;;;4.58;2.70;;;24.90;38.30;;;;;;1785324;80;21574;-10
2021/11/04 09:39:24;;;;;;;3.30;2.70;;;24.90;37.70;;;;;;1787408;79;21118;-10
2021/11/04 09:41:52;;;;;;;2.85;2.65;;;24.90;37.50;;;;;;1787631;80;21046;-10
2021/11/04 09:44:20;;;;;;;2.83;2.22;;;24.80;36.70;;;;;;1787630;80;21579;-10
2021/11/04 09:46:48;;;;;;;3.52;2.37;;;24.80;37.10;;;;;;1787686;79;21528;-10
2021/11/04 09:49:15;;;;;;;2.52;2.33;;;24.70;37.10;;;;;;1787636;80;21118;-10
2021/11/04 09:51:43;;;;;;;4.95;3.22;;;24.70;37.30;;;;;;1787606;80;21121;-10
2021/11/04 09:54:10;;;;;;;4.03;3.58;;;24.70;37.10;;;;;;1787658;80;21067;-10
2021/11/04 09:56:38;;;;;;;3.22;2.92;;;24.70;37.20;;;;;;1787653;80;21508;-10
2021/11/04 09:59:06;;;;;;;2.70;2.50;;;24.70;37.30;;;;;;1787595;80;21122;-10
2021/11/04 10:01:35;;;;;;;5.95;3.27;;;24.60;37.50;;;;;;1787601;80;21134;-10
2021/11/04 10:04:04;;;;;;;3.60;3.20;;;24.60;37.50;;;;;;1787531;80;21052;-10
2021/11/04 10:06:33;;;;;;;4.50;3.35;;;24.50;37.50;;;;;;1787777;80;21039;-11
2021/11/04 10:09:09;;;;;;;4.25;3.62;;;24.50;37.50;;;;;;1787559;79;21048;-10
2021/11/04 10:11:41;;;;;;;3.40;2.50;;;24.50;37.80;;;;;;1787230;80;21059;-10
2021/11/04 10:14:11;;;;;;;3.17;2.85;;;24.40;38.20;;;;;;1787705;80;21087;-10
2021/11/04 10:16:39;;;;;;;4.03;3.05;;;24.40;38.40;;;;;;1787557;80;21179;-10
2021/11/04 10:19:10;;;;;;;3.58;3.10;;;24.40;38.70;;;;;;1787615;80;21578;-10
2021/11/04 10:21:40;;;;;;;3.15;2.80;;;24.40;38.10;;;;;;1787770;80;21051;-10
2021/11/04 10:24:11;;;;;;;4.10;2.60;;;24.30;38.10;;;;;;1787855;79;21106;-10
2021/11/04 10:26:39;;;;;;;3.00;2.70;;;24.30;38.40;;;;;;1757056;80;21039;-10
2021/11/04 10:29:09;;;;;;;2.92;2.62;;;24.30;38.40;;;;;;1787619;80;21521;-10
2021/11/04 10:31:51;;;;;;;3.22;2.92;;;24.30;38.40;;;;;;1787600;80;21540;-10
2021/11/04 10:34:30;;;;;;;3.40;3.10;;;24.30;38.20;;;;;;1787625;80;21183;-10
2021/11/04 10:37:09;;;;;;;4.25;3.42;;;24.30;38.20;;;;;;1787627;80;21480;-10
2021/11/04 10:39:38;;;;;;;3.45;2.65;;;24.20;38.30;;;;;;1771587;80;21194;-11
2021/11/04 10:42:06;;;;;;;3.50;2.83;;;24.20;38.70;;;;;;1787648;80;21082;-11
2021/11/04 10:44:34;;;;;;;3.30;3.00;;;24.20;38.80;;;;;;1787582;80;21051;-11
2021/11/04 10:47:02;;;;;;;3.30;3.00;;;24.20;38.60;;;;;;1787661;80;21591;-11
2021/11/04 10:49:47;;;;;;;3.77;3.30;;;24.20;38.50;;;;;;1787614;80;21501;-11
2021/11/04 10:52:16;;;;;;;3.30;2.62;;;24.20;38.50;;;;;;1787507;80;21544;-11
2021/11/04 10:54:48;;;;;;;3.30;2.92;;;24.20;38.80;;;;;;1787750;80;21504;-11
2021/11/04 10:57:35;;;;;;;3.40;3.00;;;24.20;38.80;;;;;;1787902;80;21085;-11
2021/11/04 11:00:19;;;;;;;3.37;3.08;;;24.10;38.60;;;;;;1787555;80;21579;-11
2021/11/04 11:03:04;;;;;;;3.80;3.33;;;24.10;38.70;;;;;;1787557;80;21075;-11
2021/11/04 11:05:33;;;;;;;3.50;3.15;;;24.10;38.90;;;;;;1787601;80;21114;-11
2021/11/04 11:08:01;;;;;;;3.72;2.92;;;24.00;39.10;;;;;;1787598;80;21066;-11
2021/11/04 11:10:29;;;;;;;3.65;3.10;;;24.00;39.40;;;;;;1787541;80;21067;-11
2021/11/04 11:12:56;;;;;;;3.45;3.15;;;24.10;39.30;;;;;;1787629;80;21567;-11
2021/11/04 11:15:23;;;;;;;3.33;3.02;;;24.10;39.00;;;;;;1787626;80;21121;-11
2021/11/04 11:17:51;;;;;;;3.20;2.80;;;24.10;38.90;;;;;;1787590;80;21488;-11
2021/11/04 11:20:18;;;;;;;3.33;2.80;;;24.10;39.30;;;;;;1787637;80;21059;-11
2021/11/04 11:22:46;;;;;;;3.55;3.25;;;24.10;39.00;;;;;;1787757;80;21089;-11
2021/11/04 11:25:13;;;;;;;3.87;3.45;;;24.10;38.90;;;;;;1787682;79;21168;-11
2021/11/04 11:27:41;;;;;;;3.30;3.00;;;24.10;38.70;;;;;;1787660;80;21079;-11
2021/11/04 11:30:11;;;;;;;4.10;3.55;;;24.10;38.60;;;;;;1787723;80;21028;-11
2021/11/04 11:32:39;;;;;;;3.47;2.72;;;24.10;38.70;;;;;;1787683;80;21066;-11
2021/11/04 11:35:16;;;;;;;3.35;2.70;;;24.10;39.00;;;;;;1787678;80;21106;-11
2021/11/04 11:37:59;;;;;;;3.02;2.72;;;24.10;39.10;;;;;;1787616;80;21074;-11
2021/11/04 11:40:28;;;;;;;3.47;3.15;;;24.10;38.90;;;;;;1787629;79;21106;-11
2021/11/04 11:43:00;;;;;;;3.50;3.20;;;24.00;38.90;;;;;;1787735;80;21059;-11
2021/11/04 11:45:28;;;;;;;;;;;24.00;38.80;;;;;;1790411;80;21039;-11
2021/11/04 11:47:55;;;;;;;2.87;2.58;;;23.90;39.00;;;;;;1787590;80;20164;-11
2021/11/04 11:50:34;;;;;;;4.55;3.25;;;23.90;39.40;;;;;;1787686;80;21076;-11
2021/11/04 11:53:06;;;;;;;4.00;3.60;;;24.00;39.00;;;;;;1787741;80;21075;-11
2021/11/04 11:55:39;;;;;;;3.25;2.95;;;24.00;38.90;;;;;;1787710;80;21019;-11
2021/11/04 11:58:37;;;;;;;3.33;2.92;;;24.00;39.10;;;;;;1787629;80;21111;-11
2021/11/04 12:01:09;;;;;;;3.02;2.72;;;24.00;39.30;;;;;;1787679;80;21152;-11
2021/11/04 12:03:41;;;;;;;4.65;3.83;;;23.90;39.30;;;;;;1787727;80;21066;-11
2021/11/04 12:06:18;;;;;;;4.35;3.83;;;23.90;39.10;;;;;;1787646;80;21172;-11
2021/11/04 12:08:49;;;;;;;4.70;4.17;;;24.00;39.20;;;;;;1787680;79;21153;-11
2021/11/04 12:11:37;;;;;;;;;;;24.00;39.10;;;;;;1790385;80;21610;-11
2021/11/04 12:14:26;;;;;;;4.58;3.77;;;23.80;39.20;;;;;;1787734;80;20129;-10
2021/11/04 12:17:06;;;;;;;5.12;4.60;;;23.80;39.60;;;;;;1787633;80;21485;-10
2021/11/04 12:19:55;;;;;;;5.30;4.80;;;23.80;39.20;;;;;;1787669;80;21606;-10
2021/11/04 12:22:28;;;;;;;5.65;5.03;;;23.90;39.30;;;;;;1787681;80;21086;-10
2021/11/04 12:24:58;;;;;;;5.35;4.60;;;23.80;39.20;;;;;;1787354;79;21133;-10
2021/11/04 12:27:32;;;;;;;5.60;4.60;;;23.80;39.40;;;;;;1787132;80;21094;-10
2021/11/04 12:30:12;;;;;;;5.37;4.60;;;23.80;39.40;;;;;;1787572;80;21517;-10
2021/11/04 12:32:39;;;;;;;5.80;4.95;;;23.80;39.30;;;;;;1787329;80;21078;-10
2021/11/04 12:35:07;;;;;;;5.37;4.80;;;23.80;39.10;;;;;;1787745;80;21079;-11
2021/11/04 12:37:35;;;;;;;5.92;5.15;;;23.90;39.10;;;;;;1787711;80;21517;-10
2021/11/04 12:40:07;;;;;;;5.22;4.00;;;23.90;39.10;;;;;;1787671;79;21564;-10
2021/11/04 12:42:34;;;;;;;4.53;4.00;;;23.90;39.30;;;;;;1787781;80;21039;-11
2021/11/04 12:45:02;;;;;;;4.80;4.30;;;23.90;39.30;;;;;;1787710;80;21043;-10
2021/11/04 12:47:29;;;;;;;4.78;4.05;;;23.90;38.90;;;;;;1787729;80;21512;-10
2021/11/04 12:49:57;;;;;;;4.17;3.77;;;23.90;38.90;;;;;;1787647;80;21137;-10
2021/11/04 12:52:27;;;;;;;4.35;3.00;;;24.00;38.90;;;;;;1787773;80;21593;-10
2021/11/04 12:54:56;;;;;;;3.87;3.35;;;23.90;39.30;;;;;;1787632;80;21137;-10
2021/11/04 12:57:25;;;;;;;4.28;3.15;;;24.00;39.40;;;;;;1787554;80;21082;-10
2021/11/04 12:59:56;;;;;;;4.87;3.80;;;23.90;39.10;;;;;;1787081;80;21090;-10